Time;durP1;ratioP1;P1;durP2;ratioP2;P2;SDS_P1;SDS_P2;PMS_P1;PMS_P2;Temp;Humidity;BMP_temperature;BMP_pressure;BME280_temperature;BME280_humidity;BME280_pressure;Samples;Min_cycle;Max_cycle;Signal;HPM_P1;HPM_P2
2022/08/12 00:44:28;;;;;;;4.80;2.42;;;;;;;21.69;45.88;100572.25;5057409;28;20036;-86
2022/08/12 00:49:39;;;;;;;3.80;2.05;;;;;;;21.83;44.92;100571.41;5109315;23;20053;-89
2022/08/12 00:52:07;;;;;;;5.78;2.47;;;;;;;21.82;44.87;100576.16;5038793;28;20099;-88
2022/08/12 00:54:48;;;;;;;4.55;2.20;;;;;;;21.80;44.82;100575.78;5056042;28;20116;-89
2022/08/12 00:57:20;;;;;;;5.05;2.08;;;;;;;21.74;45.10;100573.84;5056664;28;20017;-92
2022/08/12 01:00:00;;;;;;;3.92;2.10;;;;;;;21.69;45.31;100583.34;5056151;28;20040;-92
2022/08/12 01:02:31;;;;;;;4.45;2.42;;;;;;;21.61;45.43;100581.75;5038399;28;20033;-91
2022/08/12 01:13:17;;;;;;;7.97;3.05;;;;;;;21.41;46.61;100578.63;5054359;28;20040;-90
2022/08/12 01:15:48;;;;;;;4.43;2.25;;;;;;;21.37;46.67;100577.84;5056247;28;20025;-91
2022/08/12 01:18:15;;;;;;;4.70;2.22;;;;;;;21.31;47.00;100582.97;5241362;23;20069;-91
2022/08/12 01:21:25;;;;;;;6.72;2.63;;;;;;;21.20;47.19;100582.19;5420238;23;20557;-92
2022/08/12 01:24:16;;;;;;;9.82;2.25;;;;;;;21.14;47.42;100580.19;4969007;28;20038;-88
2022/08/12 01:26:45;;;;;;;5.25;2.35;;;;;;;21.14;47.60;100569.88;5108683;23;20072;-91
2022/08/12 01:29:14;;;;;;;5.05;2.60;;;;;;;21.16;47.57;100575.03;5055723;28;20061;-88
2022/08/12 01:31:42;;;;;;;6.20;2.05;;;;;;;21.07;48.01;100572.66;5068142;23;20115;-88
2022/08/12 01:34:11;;;;;;;5.03;2.80;;;;;;;20.98;48.45;100575.81;5056152;28;20095;-88
2022/08/12 01:36:45;;;;;;;4.82;2.30;;;;;;;20.97;48.31;100579.78;5056479;28;20049;-86
2022/08/12 01:39:14;;;;;;;8.75;3.13;;;;;;;20.99;48.46;100574.63;5055260;28;20029;-88
2022/08/12 01:41:46;;;;;;;6.15;2.70;;;;;;;20.96;48.41;100574.63;5055033;28;20021;-88
2022/08/12 01:44:13;;;;;;;5.97;2.22;;;;;;;20.91;48.68;100567.50;5053393;28;20120;-88
2022/08/12 01:46:41;;;;;;;6.25;2.92;;;;;;;20.93;49.10;100570.69;5042168;28;20063;-87
2022/08/12 01:49:35;;;;;;;5.95;2.50;;;;;;;20.83;50.08;100571.47;5042495;28;20052;-89
2022/08/12 01:52:03;;;;;;;4.63;2.33;;;;;;;20.77;50.23;100572.25;5050968;28;20043;-91
2022/08/12 01:54:37;;;;;;;4.32;2.15;;;;;;;20.62;50.93;100574.97;5028040;28;20033;-89
2022/08/12 01:57:23;;;;;;;5.80;2.55;;;;;;;20.53;51.31;100568.25;5040600;28;20021;-89
2022/08/12 02:00:13;;;;;;;8.00;2.85;;;;;;;20.41;51.93;100566.63;5041818;28;20091;-90
2022/08/12 02:02:39;;;;;;;5.55;2.38;;;;;;;20.29;52.50;100569.69;5043527;28;20060;-91
2022/08/12 02:11:28;;;;;;;4.20;2.42;;;;;;;20.14;52.76;100561.34;5052066;28;20028;-89
2022/08/12 02:14:29;;;;;;;5.00;2.38;;;;;;;20.16;52.48;100571.25;5049460;28;20036;-91
2022/08/12 02:17:22;;;;;;;7.18;2.63;;;;;;;20.13;52.58;100570.03;5040750;28;20037;-91
2022/08/12 02:20:08;;;;;;;4.70;2.38;;;;;;;19.93;53.29;100575.06;5042534;28;20112;-90
2022/08/12 02:22:41;;;;;;;4.68;2.58;;;;;;;20.00;53.12;100577.88;5036937;28;20192;-90
2022/08/12 02:25:16;;;;;;;5.55;2.30;;;;;;;19.98;53.40;100574.69;5047499;28;20029;-90
2022/08/12 02:27:46;;;;;;;5.28;2.33;;;;;;;20.12;52.69;100577.53;5054220;28;20044;-89
2022/08/12 02:30:15;;;;;;;4.75;2.58;;;;;;;20.06;52.73;100570.00;5045637;28;20021;-89
2022/08/12 02:32:43;;;;;;;5.78;3.00;;;;;;;20.04;52.67;100578.69;5039466;28;20148;-90
2022/08/12 02:35:13;;;;;;;4.68;2.97;;;;;;;20.06;52.50;100579.09;5024752;28;20072;-89
2022/08/12 02:37:40;;;;;;;5.22;3.00;;;;;;;19.99;52.96;100579.06;5043802;28;20068;-90
2022/08/12 02:40:07;;;;;;;5.53;2.67;;;;;;;19.81;53.75;100578.16;5020271;28;20030;-90
2022/08/12 02:42:33;;;;;;;7.38;3.05;;;;;;;19.73;54.45;100571.81;5043446;28;20034;-91
2022/08/12 02:45:05;;;;;;;5.40;2.65;;;;;;;19.92;53.39;100576.25;5046430;28;20040;-89
2022/08/12 02:47:36;;;;;;;6.28;3.00;;;;;;;19.97;53.34;100578.63;5047278;28;20084;-89
2022/08/12 02:50:03;;;;;;;5.30;2.65;;;;;;;19.91;53.93;100571.91;5053326;28;20025;-88
2022/08/12 02:52:30;;;;;;;8.85;2.70;;;;;;;19.84;54.39;100571.88;5028512;28;20029;-86
2022/08/12 02:55:01;;;;;;;6.10;2.88;;;;;;;19.80;54.78;100582.09;5038330;28;20186;-87
2022/08/12 02:57:26;;;;;;;18.98;4.18;;;;;;;19.70;55.10;100583.63;5022204;28;20514;-90
2022/08/12 02:59:52;;;;;;;;;;;;;;;19.60;55.62;100580.78;5038165;28;20029;-90
2022/08/12 03:02:21;;;;;;;5.93;3.00;;;;;;;19.61;55.73;100572.13;5040237;28;19909;-89
2022/08/12 03:04:56;;;;;;;5.97;2.63;;;;;;;19.61;55.44;100572.13;5040079;28;20037;-91
2022/08/12 03:07:27;;;;;;;6.20;3.10;;;;;;;19.65;55.46;100574.91;5037711;28;20040;-91
2022/08/12 03:10:04;;;;;;;4.93;2.63;;;;;;;19.51;55.83;100576.38;5035945;28;20025;-88
2022/08/12 03:12:36;;;;;;;6.53;2.88;;;;;;;19.44;56.30;100581.03;5035303;28;20026;-87
2022/08/12 03:15:05;;;;;;;4.50;2.70;;;;;;;19.32;56.44;100581.38;5035236;28;20037;-88
2022/08/12 03:17:43;;;;;;;4.80;2.60;;;;;;;19.39;56.12;100584.16;5040055;28;20039;-92
2022/08/12 03:20:15;;;;;;;6.65;3.35;;;;;;;19.38;56.48;100588.09;5038286;28;20031;-87
2022/08/12 03:22:42;;;;;;;5.05;2.92;;;;;;;19.47;55.93;100585.78;5034714;28;20029;-88
2022/08/12 03:25:16;;;;;;;5.97;2.78;;;;;;;19.43;56.50;100583.00;5035263;28;20029;-88
2022/08/12 03:27:50;;;;;;;5.45;2.90;;;;;;;19.30;56.59;100580.94;5044065;28;20041;-93
2022/08/12 03:30:17;;;;;;;9.70;3.15;;;;;;;19.29;57.02;100577.38;5054026;28;20025;-91
2022/08/12 03:32:47;;;;;;;4.70;2.70;;;;;;;19.24;57.35;100573.00;5049424;28;20049;-93
2022/08/12 03:35:17;;;;;;;6.22;2.92;;;;;;;19.20;57.41;100582.44;5055808;28;20033;-91
2022/08/12 03:37:44;;;;;;;6.28;3.10;;;;;;;19.16;57.48;100584.38;5055574;28;20109;-91
2022/08/12 03:41:32;;;;;;;7.68;3.00;;;;;;;19.11;57.79;100581.97;5057352;28;20029;-92
2022/08/12 04:02:13;;;;;;;5.32;3.20;;;;;;;18.46;61.27;100582.44;5052375;28;20045;-91
2022/08/12 04:04:43;;;;;;;5.85;2.95;;;;;;;18.32;62.05;100577.59;5053521;28;20032;-92
2022/08/12 04:07:10;;;;;;;5.28;2.92;;;;;;;18.26;62.45;100579.88;5054648;28;20018;-90
2022/08/12 04:09:41;;;;;;;6.35;3.40;;;;;;;18.29;62.31;100578.31;5043755;28;20052;-91
2022/08/12 04:14:52;;;;;;;6.45;3.28;;;;;;;18.17;62.74;100592.38;5040768;28;20036;-92
2022/08/12 04:17:18;;;;;;;6.40;3.05;;;;;;;18.15;62.67;100584.47;5050840;28;20092;-88
2022/08/12 04:19:47;;;;;;;;;;;;;;;18.14;62.27;100576.56;5051441;28;20116;-88
2022/08/12 04:22:13;;;;;;;6.35;3.15;;;;;;;18.18;62.39;100589.22;5054051;28;19909;-86
2022/08/12 04:24:39;;;;;;;;;;;;;;;18.20;62.18;100586.09;5051521;28;20047;-90
2022/08/12 04:27:07;;;;;;;6.95;3.85;;;;;;;18.25;61.73;100583.78;5041315;28;19909;-90
2022/08/12 04:29:34;;;;;;;6.55;3.00;;;;;;;18.40;60.93;100586.72;5040453;28;20005;-91
2022/08/12 04:31:59;;;;;;;7.00;3.35;;;;;;;18.27;61.42;100588.94;5048349;28;20037;-89
2022/08/12 04:34:24;;;;;;;;;;;;;;;18.30;61.15;100579.91;5038971;28;20029;-89
2022/08/12 04:36:52;;;;;;;5.35;2.88;;;;;;;18.21;61.30;100580.22;5028480;28;19937;-89
2022/08/12 04:39:20;;;;;;;5.75;3.40;;;;;;;18.19;61.27;100588.06;5020431;28;20033;-88
2022/08/12 04:41:45;;;;;;;8.32;3.10;;;;;;;18.26;61.15;100588.13;5034241;28;20037;-86
2022/08/12 04:44:10;;;;;;;;;;;;;;;18.37;60.11;100595.75;5035856;28;20337;-91
2022/08/12 04:46:36;;;;;;;7.43;3.40;;;;;;;18.49;59.52;100582.50;5035855;28;20364;-89
2022/08/12 04:49:02;;;;;;;;;;;;;;;18.56;58.94;100581.78;5018421;28;20048;-91
2022/08/12 04:51:28;;;;;;;6.25;2.97;;;;;;;18.63;58.60;100590.94;5036755;28;19948;-90
2022/08/12 04:53:53;;;;;;;4.72;2.88;;;;;;;18.71;58.47;100589.06;5035119;28;20085;-90
2022/08/12 04:56:19;;;;;;;;;;;;;;;18.79;58.14;100585.22;5035531;28;20033;-88
2022/08/12 04:58:44;;;;;;;7.47;3.53;;;;;;;18.87;57.87;100575.84;5017041;28;19913;-89
2022/08/12 05:01:11;;;;;;;;;;;;;;;18.81;58.37;100582.88;5035771;28;20113;-89
2022/08/12 05:03:39;;;;;;;8.32;3.05;;;;;;;18.93;58.52;100581.81;5018388;28;19913;-87
2022/08/12 05:06:07;;;;;;;7.97;3.33;;;;;;;18.90;58.28;100575.06;5019665;28;20025;-89
2022/08/12 05:08:33;;;;;;;6.35;3.33;;;;;;;18.86;58.62;100585.28;5018915;28;20025;-89
2022/08/12 05:10:58;;;;;;;8.93;3.17;;;;;;;18.86;58.31;100579.78;5039857;28;20037;-87
2022/08/12 05:13:44;;;;;;;;;;;;;;;18.90;57.55;100580.59;5050214;28;20084;-88
2022/08/12 05:16:09;;;;;;;5.97;2.97;;;;;;;19.06;56.94;100580.34;5041395;28;19909;-87
2022/08/12 05:18:36;;;;;;;;;;;;;;;19.08;56.99;100582.72;5046650;28;20037;-89
2022/08/12 05:21:03;;;;;;;8.13;3.90;;;;;;;19.27;57.26;100576.19;5033130;28;19913;-88
2022/08/12 05:23:30;;;;;;;5.55;3.08;;;;;;;19.40;57.17;100580.22;5036710;28;20067;-89
2022/08/12 05:25:56;;;;;;;7.78;3.10;;;;;;;19.40;56.36;100581.03;5051173;28;20154;-89
2022/08/12 05:28:23;;;;;;;;;;;;;;;19.31;57.43;100579.75;5053123;28;20460;-88
2022/08/12 05:30:49;;;;;;;6.23;3.30;;;;;;;19.26;56.70;100577.34;5037053;28;19915;-88
2022/08/12 05:33:14;;;;;;;;;;;;;;;19.23;57.55;100587.19;5052491;28;20037;-87
2022/08/12 05:35:42;;;;;;;6.68;3.30;;;;;;;19.26;56.98;100586.44;5050579;28;20283;-86
2022/08/12 05:40:58;;;;;;;6.72;3.28;;;;;;;19.38;57.15;100588.09;5040885;28;20451;-87
2022/08/12 05:43:24;;;;;;;6.03;3.65;;;;;;;19.42;57.20;100588.91;5026681;28;20029;-89
2022/08/12 05:45:49;;;;;;;;;;;;;;;19.46;56.25;100592.50;5047636;28;20132;-87
2022/08/12 05:48:15;;;;;;;7.17;3.03;;;;;;;19.55;56.48;100593.00;5046691;28;19913;-89
2022/08/12 05:50:41;;;;;;;;;;;;;;;19.64;56.34;100593.44;5045288;28;20045;-87
2022/08/12 05:53:07;;;;;;;5.78;2.88;;;;;;;19.68;55.65;100585.19;5027031;28;19931;-87
2022/08/12 05:55:36;;;;;;;;;;;;;;;19.61;55.86;100591.47;5055416;28;20132;-87
2022/08/12 05:58:03;;;;;;;4.78;2.83;;;;;;;19.71;55.08;100590.75;5059890;28;19912;-86
2022/08/12 06:00:30;;;;;;;7.97;2.75;;;;;;;19.86;54.69;100591.63;5037007;28;20033;-88
2022/08/12 06:03:00;;;;;;;5.93;3.03;;;;;;;19.92;54.35;100590.06;5032967;28;20096;-87
2022/08/12 06:05:27;;;;;;;5.30;2.75;;;;;;;20.07;54.15;100590.94;5052637;28;20037;-88
2022/08/12 06:07:54;;;;;;;5.82;3.05;;;;;;;20.23;53.49;100596.16;5026181;28;20100;-86
2022/08/12 06:10:19;;;;;;;4.40;2.75;;;;;;;20.41;52.46;100594.28;5043904;28;20469;-86
2022/08/12 06:12:48;;;;;;;6.50;2.80;;;;;;;20.50;52.14;100597.47;5048982;28;20095;-85
2022/08/12 06:15:17;;;;;;;5.85;3.03;;;;;;;20.55;52.19;100594.31;5033809;28;20029;-85
2022/08/12 06:17:43;;;;;;;6.28;3.13;;;;;;;20.68;51.23;100592.78;5024436;28;20029;-86
2022/08/12 06:20:12;;;;;;;5.20;2.83;;;;;;;20.85;51.30;100596.00;5042496;28;20028;-86
2022/08/12 06:22:38;;;;;;;5.28;2.95;;;;;;;20.94;51.24;100599.94;5028957;28;20040;-86
2022/08/12 06:25:04;;;;;;;4.00;2.08;;;;;;;21.04;51.04;100598.38;5045207;28;20047;-87
2022/08/12 06:27:29;;;;;;;5.57;2.65;;;;;;;21.15;50.57;100603.91;5023956;28;20057;-86
2022/08/12 06:29:55;;;;;;;;;;;;;;;21.20;50.97;100598.78;5042245;28;20103;-86
2022/08/12 06:32:20;;;;;;;6.25;2.50;;;;;;;21.29;50.10;100599.19;5043565;28;20318;-86
2022/08/12 06:34:46;;;;;;;4.72;2.67;;;;;;;21.42;48.66;100607.13;5041199;28;20041;-86
2022/08/12 06:37:11;;;;;;;4.65;2.47;;;;;;;21.63;48.93;100598.78;5021856;28;20037;-86
2022/08/12 06:39:36;;;;;;;;;;;;;;;21.71;47.68;100603.13;5042755;28;20112;-87
2022/08/12 06:44:46;;;;;;;4.63;2.40;;;;;;;22.80;44.57;100592.03;5040489;28;20045;-87
2022/08/12 06:47:14;;;;;;;4.38;2.53;;;;;;;23.50;42.48;100587.13;5040083;28;20050;-87
2022/08/12 06:49:39;;;;;;;3.88;2.05;;;;;;;24.22;41.34;100589.97;5038923;28;20108;-87
2022/08/12 06:52:06;;;;;;;4.20;2.08;;;;;;;24.50;40.26;100586.06;5038784;28;20074;-88
2022/08/12 06:54:32;;;;;;;4.20;1.90;;;;;;;25.23;39.55;100588.19;5037376;28;20120;-88
2022/08/12 06:57:00;;;;;;;5.20;2.38;;;;;;;25.56;38.47;100582.84;5037192;28;20034;-87
2022/08/12 06:59:26;;;;;;;3.80;1.95;;;;;;;25.58;38.31;100581.22;5037566;28;20033;-88
2022/08/12 07:01:51;;;;;;;7.30;2.38;;;;;;;25.79;37.74;100574.47;5022995;28;20033;-87
2022/08/12 07:04:16;;;;;;;6.32;1.80;;;;;;;25.84;37.76;100584.34;5039914;28;20032;-88
2022/08/12 07:06:43;;;;;;;3.80;2.00;;;;;;;26.08;36.81;100583.84;5022498;28;20057;-87
2022/08/12 07:09:09;;;;;;;4.00;1.98;;;;;;;25.71;36.66;100575.81;5039905;28;20033;-87
2022/08/12 07:11:34;;;;;;;4.85;2.03;;;;;;;25.92;36.76;100583.78;5038126;28;20104;-86
2022/08/12 07:14:02;;;;;;;4.60;1.88;;;;;;;25.89;36.83;100584.63;5019645;28;20041;-86
2022/08/12 07:16:50;;;;;;;4.45;1.98;;;;;;;25.75;37.57;100584.91;5037479;28;20029;-86
2022/08/12 07:19:17;;;;;;;4.85;2.08;;;;;;;25.44;38.02;100593.38;5036960;28;20219;-86
2022/08/12 07:21:42;;;;;;;4.10;1.88;;;;;;;25.38;37.55;100594.31;5019687;28;20030;-86
2022/08/12 07:24:07;;;;;;;3.90;2.05;;;;;;;25.23;38.15;100593.75;5018805;28;20083;-86
2022/08/12 07:26:36;;;;;;;3.75;1.80;;;;;;;24.95;39.34;100585.81;5035506;28;20033;-86
2022/08/12 07:29:01;;;;;;;3.70;2.03;;;;;;;24.75;39.10;100603.22;5036251;28;20033;-86
2022/08/12 07:31:27;;;;;;;3.38;1.73;;;;;;;24.67;38.89;100609.28;5036854;28;20029;-88
2022/08/12 07:33:52;;;;;;;3.95;1.90;;;;;;;24.54;39.38;100597.94;5036161;28;20475;-86
2022/08/12 07:36:21;;;;;;;3.58;1.80;;;;;;;24.60;40.53;100605.41;5037635;28;20033;-86
2022/08/12 07:38:47;;;;;;;4.90;1.85;;;;;;;24.82;39.10;100597.53;5037622;28;20377;-87
2022/08/12 07:41:18;;;;;;;6.40;2.45;;;;;;;24.80;39.46;100596.38;5037410;28;20037;-86
2022/08/12 07:43:50;;;;;;;5.55;2.03;;;;;;;24.90;39.94;100595.44;5036754;28;20171;-87
2022/08/12 07:46:19;;;;;;;4.78;1.80;;;;;;;24.90;39.44;100598.22;5021472;28;20046;-85
2022/08/12 07:48:50;;;;;;;5.47;2.22;;;;;;;24.98;39.66;100599.69;5036176;28;20029;-86
2022/08/12 07:51:17;;;;;;;3.88;1.90;;;;;;;25.08;39.20;100603.56;5036578;28;20083;-87
2022/08/12 07:53:43;;;;;;;5.32;1.92;;;;;;;25.22;38.79;100600.53;5036408;28;20091;-85
2022/08/12 07:56:10;;;;;;;3.92;2.03;;;;;;;25.38;38.76;100608.25;5036125;28;20432;-85
2022/08/12 07:58:38;;;;;;;3.95;1.70;;;;;;;25.38;38.99;100606.25;5036042;28;20052;-85
2022/08/12 08:01:16;;;;;;;6.82;1.90;;;;;;;25.45;38.71;100606.13;5018117;28;20052;-87
2022/08/12 08:06:27;;;;;;;5.65;2.10;;;;;;;25.76;37.97;100600.44;5037361;28;20028;-87
2022/08/12 08:08:56;;;;;;;4.57;1.50;;;;;;;25.85;37.85;100599.84;5039355;28;20033;-84
2022/08/12 08:14:06;;;;;;;4.55;1.90;;;;;;;25.94;37.18;100600.88;5036953;28;20093;-86
2022/08/12 08:16:32;;;;;;;5.50;1.60;;;;;;;26.14;36.32;100605.66;5020540;28;20037;-86
2022/08/12 08:18:58;;;;;;;3.60;1.90;;;;;;;26.27;36.84;100601.03;5039392;28;20104;-86
2022/08/12 08:21:31;;;;;;;4.07;1.73;;;;;;;26.32;36.37;100608.88;5039534;28;20451;-86
2022/08/12 08:24:13;;;;;;;5.85;1.88;;;;;;;26.57;35.78;100606.38;5037615;28;20025;-85
2022/08/12 08:26:39;;;;;;;3.90;1.83;;;;;;;26.62;36.15;100613.47;5036356;28;20036;-84
2022/08/12 08:29:04;;;;;;;3.95;1.70;;;;;;;26.51;35.29;100612.91;5035476;28;20057;-83
2022/08/12 08:31:29;;;;;;;3.22;1.60;;;;;;;26.72;35.00;100608.88;5016664;28;20029;-86
2022/08/12 08:33:55;;;;;;;2.85;1.45;;;;;;;26.84;34.26;100605.38;5035764;28;20048;-86
2022/08/12 08:36:20;;;;;;;3.53;1.48;;;;;;;26.86;33.16;100608.53;5036198;28;20049;-85
2022/08/12 08:38:46;;;;;;;2.97;1.30;;;;;;;26.91;31.25;100603.22;5036095;28;20037;-85
2022/08/12 08:43:58;;;;;;;2.58;1.20;;;;;;;27.10;31.34;100593.22;5035753;28;20032;-84
2022/08/12 08:46:24;;;;;;;2.72;1.20;;;;;;;27.23;31.52;100596.91;5018451;28;20086;-86
2022/08/12 08:48:50;;;;;;;3.00;1.30;;;;;;;27.14;32.23;100605.09;5036529;28;20029;-86
2022/08/12 08:51:15;;;;;;;5.15;1.55;;;;;;;27.05;32.89;100604.16;5035932;28;20060;-85
2022/08/12 08:53:42;;;;;;;3.38;1.40;;;;;;;27.22;31.57;100594.53;5035602;28;20047;-87
2022/08/12 08:56:09;;;;;;;3.85;1.25;;;;;;;27.40;30.47;100594.88;5036873;28;20139;-84
2022/08/12 08:58:37;;;;;;;5.15;1.90;;;;;;;27.54;30.16;100590.91;5036223;28;20044;-85
2022/08/12 09:01:03;;;;;;;13.82;1.55;;;;;;;27.67;30.22;100594.59;5038065;28;20033;-85
2022/08/12 09:03:29;;;;;;;2.92;1.25;;;;;;;27.75;30.07;100586.81;5037201;28;20029;-87
2022/08/12 09:05:55;;;;;;;3.50;1.33;;;;;;;27.64;29.72;100587.09;5042420;28;20131;-87
2022/08/12 09:08:21;;;;;;;2.60;1.20;;;;;;;27.64;29.89;100591.88;5022333;28;20034;-85
2022/08/12 09:10:47;;;;;;;2.83;1.20;;;;;;;27.68;29.48;100595.38;5036709;28;20029;-87
2022/08/12 09:13:33;;;;;;;2.67;1.20;;;;;;;27.84;29.31;100587.72;5038647;28;20036;-86
2022/08/12 09:15:59;;;;;;;4.83;1.73;;;;;;;27.82;28.91;100595.00;5016056;28;20029;-88
2022/08/12 09:18:26;;;;;;;3.15;1.30;;;;;;;27.82;28.66;100592.97;5035325;28;20045;-84
2022/08/12 09:20:51;;;;;;;3.28;1.42;;;;;;;27.98;27.61;100589.34;5034844;28;20033;-86
2022/08/12 09:23:17;;;;;;;3.30;1.25;;;;;;;28.01;27.18;100593.25;5017282;28;20129;-87
2022/08/12 09:25:43;;;;;;;2.78;1.20;;;;;;;27.95;27.23;100589.44;5035263;28;20030;-85
2022/08/12 09:28:10;;;;;;;3.47;1.63;;;;;;;28.06;27.35;100589.94;5036625;28;20029;-86
2022/08/12 09:30:48;;;;;;;3.33;1.30;;;;;;;28.37;27.18;100582.63;5036790;28;20104;-86
2022/08/12 09:33:13;;;;;;;4.55;1.40;;;;;;;28.33;26.01;100595.97;5034836;28;20033;-85
2022/08/12 09:35:43;;;;;;;1.92;0.90;;;;;;;28.14;26.75;100580.88;5017383;28;20365;-84
2022/08/12 09:38:14;;;;;;;2.58;1.17;;;;;;;28.21;26.34;100581.91;5035491;28;20447;-86
2022/08/12 09:40:40;;;;;;;3.60;1.65;;;;;;;28.28;26.23;100581.72;5035892;28;20041;-86
2022/08/12 09:45:49;;;;;;;3.42;1.20;;;;;;;28.31;26.46;100578.81;5035910;28;20092;-86
2022/08/12 09:48:16;;;;;;;2.85;1.10;;;;;;;28.59;26.62;100571.59;5037781;28;20030;-86
2022/08/12 09:50:46;;;;;;;2.78;1.17;;;;;;;28.64;26.09;100567.44;5035333;28;20098;-85
2022/08/12 09:53:23;;;;;;;2.63;1.08;;;;;;;28.49;26.21;100571.91;5018909;28;20037;-86
2022/08/12 09:55:54;;;;;;;2.80;1.23;;;;;;;28.66;26.01;100570.56;5039976;28;20036;-86
2022/08/12 09:58:27;;;;;;;2.22;1.10;;;;;;;28.63;25.61;100577.06;5044384;28;20447;-88
2022/08/12 10:01:03;;;;;;;3.08;1.30;;;;;;;28.78;25.61;100572.59;5036000;28;20046;-87
2022/08/12 10:03:35;;;;;;;2.38;1.17;;;;;;;28.64;25.40;100568.22;5034925;28;20107;-87
2022/08/12 10:06:04;;;;;;;2.42;1.13;;;;;;;28.81;25.54;100560.47;5036983;28;20066;-88
2022/08/12 10:08:30;;;;;;;2.30;1.00;;;;;;;28.73;25.08;100564.75;5035872;28;20445;-87
2022/08/12 10:13:42;;;;;;;4.97;1.35;;;;;;;28.49;25.83;100566.28;5035638;28;20037;-88
2022/08/12 10:16:16;;;;;;;3.00;1.40;;;;;;;28.70;25.66;100554.41;5027564;28;20026;-87
2022/08/12 10:18:45;;;;;;;2.95;1.40;;;;;;;28.58;25.68;100555.22;5043955;28;20064;-88
2022/08/12 10:21:12;;;;;;;3.30;1.33;;;;;;;28.66;25.86;100551.75;5033096;28;20025;-89
2022/08/12 10:23:39;;;;;;;5.30;1.40;;;;;;;28.85;25.99;100549.94;5041234;28;20033;-89
2022/08/12 10:31:41;;;;;;;2.78;1.10;;;;;;;28.96;25.95;100533.59;5009834;28;20059;-86
2022/08/12 10:34:08;;;;;;;4.22;1.23;;;;;;;29.22;25.32;100525.91;5039284;28;20033;-87
2022/08/12 10:36:37;;;;;;;2.92;1.33;;;;;;;29.24;25.20;100523.44;5041660;28;20144;-88
2022/08/12 10:39:03;;;;;;;3.85;1.40;;;;;;;29.32;25.26;100521.16;5044132;28;20033;-86
2022/08/12 10:44:14;;;;;;;7.68;1.45;;;;;;;29.19;25.06;100529.59;5047118;28;20048;-87
2022/08/12 10:46:41;;;;;;;3.10;1.40;;;;;;;28.78;25.45;100522.16;5047578;28;20049;-87
2022/08/12 10:49:06;;;;;;;3.80;1.38;;;;;;;28.96;25.36;100513.97;5047427;28;20033;-87
2022/08/12 10:51:31;;;;;;;2.53;1.20;;;;;;;28.95;25.37;100506.81;5042351;28;20056;-85
2022/08/12 10:53:57;;;;;;;3.85;1.20;;;;;;;29.08;25.47;100506.00;5045037;28;20026;-87
2022/08/12 10:56:22;;;;;;;2.65;1.10;;;;;;;29.20;25.43;100510.75;5050829;28;20116;-89
2022/08/12 10:58:48;;;;;;;2.67;1.30;;;;;;;29.22;25.22;100502.69;5054236;28;20029;-87
2022/08/12 11:01:17;;;;;;;2.95;1.25;;;;;;;29.15;25.30;100502.94;5051204;28;20109;-87
2022/08/12 11:03:42;;;;;;;5.93;1.73;;;;;;;28.96;26.01;100487.97;5047196;28;20041;-86
2022/08/12 11:06:10;;;;;;;4.03;1.60;;;;;;;28.93;26.07;100486.06;5046014;28;20083;-86
2022/08/12 11:08:38;;;;;;;4.82;1.63;;;;;;;28.92;25.87;100478.91;5045569;28;20060;-84
2022/08/12 11:11:08;;;;;;;3.30;1.33;;;;;;;29.28;26.10;100479.22;5044770;28;20072;-84
2022/08/12 11:13:34;;;;;;;2.95;1.33;;;;;;;29.33;25.27;100483.47;5045547;28;20116;-85
2022/08/12 11:16:00;;;;;;;3.92;1.63;;;;;;;29.30;25.61;100481.56;5024690;28;20041;-85
2022/08/12 11:18:26;;;;;;;4.32;1.70;;;;;;;29.60;24.75;100474.53;5042867;28;20164;-84
2022/08/12 11:20:53;;;;;;;3.05;1.13;;;;;;;29.55;24.65;100484.28;5023537;28;20048;-85
2022/08/12 11:23:19;;;;;;;3.60;1.77;;;;;;;29.32;25.54;100476.28;5046014;28;20061;-85
2022/08/12 11:25:45;;;;;;;3.15;1.45;;;;;;;29.46;25.53;100464.59;5049487;28;20040;-88
2022/08/12 11:28:12;;;;;;;2.83;1.10;;;;;;;29.50;25.14;100456.81;5044815;28;20093;-90
2022/08/12 11:30:38;;;;;;;2.72;1.20;;;;;;;29.75;24.76;100458.72;5043946;28;20029;-86
2022/08/12 11:33:03;;;;;;;3.20;1.40;;;;;;;30.02;24.52;100451.69;5043836;28;20040;-87
2022/08/12 11:35:28;;;;;;;3.47;1.58;;;;;;;29.61;24.92;100454.41;5046681;28;20037;-89
2022/08/12 11:37:54;;;;;;;2.92;1.13;;;;;;;29.79;24.64;100455.78;5048803;28;20101;-86
2022/08/12 11:40:19;;;;;;;3.65;1.20;;;;;;;29.76;24.03;100451.09;5044222;28;20025;-86
2022/08/12 11:42:44;;;;;;;3.30;1.33;;;;;;;30.04;23.77;100450.00;5047244;28;20491;-89
2022/08/12 11:45:10;;;;;;;2.70;1.50;;;;;;;30.00;23.36;100449.34;5046798;28;20026;-86
2022/08/12 11:47:36;;;;;;;3.10;1.23;;;;;;;30.04;23.62;100447.19;5046710;28;20284;-88
2022/08/12 11:50:02;;;;;;;5.35;1.27;;;;;;;29.94;23.44;100454.78;5028621;28;20034;-88
2022/08/12 11:52:27;;;;;;;3.03;1.33;;;;;;;30.03;23.61;100444.81;5044936;28;20055;-88
2022/08/12 11:54:53;;;;;;;6.45;1.70;;;;;;;29.99;23.49;100449.81;5043540;28;20038;-86
2022/08/12 11:57:18;;;;;;;2.58;1.13;;;;;;;30.09;23.08;100434.59;5044760;28;20053;-85
2022/08/12 11:59:43;;;;;;;2.30;1.10;;;;;;;30.10;23.37;100439.75;5044290;28;20033;-87
2022/08/12 12:02:09;;;;;;;2.17;1.00;;;;;;;29.99;22.73;100432.97;5049297;28;20057;-86
2022/08/12 12:04:34;;;;;;;2.75;1.10;;;;;;;30.14;22.81;100431.19;5047519;28;20091;-87
2022/08/12 12:06:59;;;;;;;3.23;1.20;;;;;;;30.63;22.58;100442.47;5046501;28;20029;-89
2022/08/12 12:09:25;;;;;;;13.83;1.73;;;;;;;30.54;21.32;100431.16;5046622;28;20291;-88
2022/08/12 12:11:51;;;;;;;2.10;0.95;;;;;;;30.31;21.55;100428.91;5047117;28;20264;-86
2022/08/12 12:14:16;;;;;;;2.30;1.20;;;;;;;30.38;21.71;100429.38;5044464;28;20026;-85
2022/08/12 12:16:42;;;;;;;4.47;1.30;;;;;;;30.66;21.58;100433.09;5048961;28;20112;-86
2022/08/12 12:19:07;;;;;;;4.50;1.50;;;;;;;30.46;21.35;100427.09;5053628;28;20026;-86
2022/08/12 12:21:33;;;;;;;2.22;1.05;;;;;;;30.22;21.47;100429.66;5050006;28;20056;-85
2022/08/12 12:23:58;;;;;;;2.40;1.08;;;;;;;30.41;21.44;100428.50;5053273;28;20021;-87
2022/08/12 12:26:23;;;;;;;2.72;1.10;;;;;;;30.44;21.57;100429.59;5049972;28;20067;-87
2022/08/12 12:28:49;;;;;;;2.25;0.90;;;;;;;30.29;22.03;100428.59;5027550;28;20025;-86
2022/08/12 12:31:14;;;;;;;2.75;1.00;;;;;;;30.09;22.38;100429.00;5046886;28;20041;-86
2022/08/12 12:33:39;;;;;;;4.30;1.27;;;;;;;29.97;22.04;100419.38;5049816;28;20044;-85
2022/08/12 12:36:08;;;;;;;3.13;1.33;;;;;;;30.36;22.01;100414.25;5034354;28;20434;-87
2022/08/12 12:38:33;;;;;;;5.00;1.17;;;;;;;30.37;22.86;100424.25;5052215;28;20037;-85
2022/08/12 12:40:59;;;;;;;9.95;1.48;;;;;;;30.54;22.29;100412.28;5053657;28;20048;-85
2022/08/12 12:43:25;;;;;;;3.78;1.70;;;;;;;30.06;22.81;100415.84;5046182;28;20092;-85
2022/08/12 12:45:50;;;;;;;2.35;1.15;;;;;;;30.31;22.77;100420.47;5047864;28;20045;-85
2022/08/12 12:48:18;;;;;;;2.38;1.00;;;;;;;30.53;23.11;100415.53;5031681;28;20085;-85
2022/08/12 12:50:44;;;;;;;3.30;1.15;;;;;;;30.91;22.15;100401.13;5049151;28;20043;-87
2022/08/12 12:53:11;;;;;;;3.53;1.73;;;;;;;31.24;21.52;100390.06;5025943;28;20444;-84
2022/08/12 12:55:38;;;;;;;2.58;1.05;;;;;;;31.52;21.40;100393.59;5044773;28;20033;-84
2022/08/12 12:58:08;;;;;;;2.38;1.00;;;;;;;31.66;20.80;100392.16;5028286;28;20036;-85
2022/08/12 13:00:34;;;;;;;2.97;1.30;;;;;;;31.70;20.98;100392.75;5045079;28;20038;-88
2022/08/12 13:02:59;;;;;;;3.05;1.13;;;;;;;32.06;20.67;100369.34;5028147;28;20040;-86
2022/08/12 13:05:30;;;;;;;2.40;0.98;;;;;;;32.55;20.39;100368.13;5045843;28;20034;-85
2022/08/12 13:07:59;;;;;;;2.55;1.35;;;;;;;33.14;18.65;100360.66;5053531;28;20026;-85
2022/08/12 13:10:25;;;;;;;2.25;1.15;;;;;;;32.45;19.57;100367.44;5048711;28;20037;-87
2022/08/12 13:12:52;;;;;;;2.35;1.00;;;;;;;32.41;18.97;100366.81;5048190;28;20029;-87
2022/08/12 13:15:18;;;;;;;5.38;1.50;;;;;;;31.88;19.55;100370.19;5047512;28;20060;-88
2022/08/12 13:17:55;;;;;;;2.10;0.90;;;;;;;31.54;20.07;100376.22;5048746;28;20030;-88
2022/08/12 13:20:22;;;;;;;2.05;0.93;;;;;;;30.81;20.11;100363.78;5043878;28;20041;-88
2022/08/12 13:22:47;;;;;;;2.58;1.00;;;;;;;31.48;19.40;100369.69;5049152;28;20033;-87
2022/08/12 13:25:15;;;;;;;3.28;1.23;;;;;;;31.55;19.24;100366.53;5032716;28;20029;-87